Time;durP1;ratioP1;P1;durP2;ratioP2;P2;SDS_P1;SDS_P2;PMS_P1;PMS_P2;Temp;Humidity;BMP_temperature;BMP_pressure;BME280_temperature;BME280_humidity;BME280_pressure;Samples;Min_cycle;Max_cycle;Signal;HPM_P1;HPM_P2
2021/07/09 00:01:08;;;;;;;16.33;6.57;;;15.90;99.90;;;;;;5022594;28;20289;-86
2021/07/09 00:03:35;;;;;;;12.70;6.33;;;15.90;99.90;;;;;;5011746;28;20219;-89
2021/07/09 00:06:01;;;;;;;10.27;6.43;;;15.90;99.90;;;;;;5022533;28;20190;-88
2021/07/09 00:08:27;;;;;;;13.70;6.37;;;15.80;99.90;;;;;;5019645;28;20214;-87
2021/07/09 00:10:53;;;;;;;14.03;6.90;;;15.90;99.90;;;;;;5021471;28;20233;-86
2021/07/09 00:13:19;;;;;;;12.47;7.27;;;16.00;99.90;;;;;;5036933;28;20214;-87
2021/07/09 00:15:45;;;;;;;12.50;7.60;;;16.00;99.90;;;;;;4995497;28;20320;-87
2021/07/09 00:18:11;;;;;;;16.97;7.63;;;16.10;99.90;;;;;;5018196;28;20210;-87
2021/07/09 00:20:37;;;;;;;10.47;7.03;;;16.00;99.90;;;;;;4995595;28;20800;-86
2021/07/09 00:23:03;;;;;;;17.60;7.50;;;16.00;99.90;;;;;;5011691;28;20236;-88
2021/07/09 00:25:29;;;;;;;13.63;6.80;;;16.00;99.90;;;;;;5011508;28;20344;-87
2021/07/09 00:27:54;;;;;;;10.57;6.13;;;16.00;99.90;;;;;;5019985;28;20223;-87
2021/07/09 00:30:20;;;;;;;12.20;6.50;;;16.00;99.90;;;;;;5011879;28;20197;-89
2021/07/09 00:32:46;;;;;;;11.33;6.53;;;15.80;99.90;;;;;;4996985;28;20214;-87
2021/07/09 00:35:12;;;;;;;14.07;6.20;;;15.80;99.90;;;;;;4994558;28;20230;-88
2021/07/09 00:37:38;;;;;;;13.27;7.20;;;15.80;99.90;;;;;;5019273;28;20264;-87
2021/07/09 00:40:06;;;;;;;15.27;7.63;;;15.70;99.90;;;;;;4994668;28;20211;-89
2021/07/09 00:42:32;;;;;;;12.87;5.93;;;15.70;99.90;;;;;;5011418;28;20211;-87
2021/07/09 00:44:58;;;;;;;11.67;5.77;;;15.50;99.90;;;;;;5012327;28;20731;-86
2021/07/09 00:47:23;;;;;;;8.60;5.33;;;15.40;99.90;;;;;;5019637;28;20337;-87
2021/07/09 00:49:49;;;;;;;9.37;5.13;;;15.30;99.90;;;;;;5020089;28;20199;-87
2021/07/09 00:52:16;;;;;;;12.40;6.67;;;15.20;99.90;;;;;;5000787;28;20214;-86
2021/07/09 00:54:42;;;;;;;11.20;6.07;;;15.20;99.90;;;;;;5011387;28;20304;-87
2021/07/09 00:57:09;;;;;;;12.83;5.30;;;15.20;99.90;;;;;;5012062;28;20273;-87
2021/07/09 00:59:36;;;;;;;7.37;3.87;;;15.20;99.90;;;;;;5010107;28;20228;-86
2021/07/09 01:02:02;;;;;;;6.07;3.70;;;15.20;99.90;;;;;;5018262;28;20694;-87
2021/07/09 01:04:28;;;;;;;7.50;3.90;;;15.10;99.90;;;;;;5002709;28;20211;-86
2021/07/09 01:06:54;;;;;;;7.53;4.23;;;15.10;99.90;;;;;;5010473;28;20670;-87
2021/07/09 01:09:20;;;;;;;9.40;5.50;;;15.20;99.90;;;;;;5019683;28;20749;-88
2021/07/09 01:11:50;;;;;;;9.83;4.97;;;15.10;99.90;;;;;;4994778;28;20194;-86
2021/07/09 01:14:17;;;;;;;11.93;6.60;;;15.10;99.90;;;;;;5003250;28;20576;-86
2021/07/09 01:16:44;;;;;;;11.33;6.10;;;15.20;99.90;;;;;;5011282;28;20308;-86
2021/07/09 01:19:15;;;;;;;11.60;6.77;;;15.20;99.90;;;;;;5011551;28;20222;-86
2021/07/09 01:21:43;;;;;;;12.77;6.47;;;15.20;99.90;;;;;;5019406;28;20234;-87
2021/07/09 01:24:10;;;;;;;11.93;6.63;;;15.20;99.90;;;;;;5036253;28;20198;-87
2021/07/09 01:26:37;;;;;;;13.77;6.90;;;15.30;99.90;;;;;;5036299;28;20223;-86
2021/07/09 01:29:04;;;;;;;9.13;5.20;;;15.40;99.90;;;;;;5011221;28;20215;-86
2021/07/09 01:31:31;;;;;;;16.00;6.73;;;15.50;99.90;;;;;;5003628;28;20209;-86
2021/07/09 01:33:57;;;;;;;12.53;5.43;;;15.50;99.90;;;;;;4993958;28;20674;-87
2021/07/09 01:36:23;;;;;;;11.70;6.40;;;15.50;99.90;;;;;;5001130;28;20194;-87
2021/07/09 01:38:50;;;;;;;14.93;6.87;;;15.50;99.90;;;;;;5020836;28;20217;-86
2021/07/09 01:41:16;;;;;;;12.83;5.97;;;15.60;99.90;;;;;;5011109;28;20313;-86
2021/07/09 01:43:43;;;;;;;9.93;5.70;;;15.50;99.90;;;;;;4994106;28;20969;-86
2021/07/09 01:46:09;;;;;;;11.00;5.73;;;15.50;99.90;;;;;;4993689;28;20217;-87
2021/07/09 01:48:34;;;;;;;9.97;5.27;;;15.40;99.90;;;;;;4994151;28;20301;-87
2021/07/09 01:51:00;;;;;;;13.17;5.97;;;15.30;99.90;;;;;;5002840;28;20707;-86
2021/07/09 01:53:26;;;;;;;10.20;5.27;;;15.20;99.90;;;;;;4984335;28;20225;-86
2021/07/09 01:55:52;;;;;;;13.70;3.83;;;15.10;99.90;;;;;;5000185;28;20221;-86
2021/07/09 01:58:18;;;;;;;5.53;3.37;;;15.00;99.90;;;;;;5010331;28;20309;-86
2021/07/09 02:00:45;;;;;;;5.93;2.50;;;14.90;99.90;;;;;;5011733;28;20229;-86
2021/07/09 02:03:11;;;;;;;9.93;4.37;;;14.80;99.90;;;;;;5010431;28;20186;-88
2021/07/09 02:05:37;;;;;;;6.27;3.60;;;14.60;99.90;;;;;;4994446;28;20237;-87
2021/07/09 02:08:03;;;;;;;5.90;4.70;;;14.60;99.90;;;;;;5003084;28;20222;-88
2021/07/09 02:10:32;;;;;;;9.90;5.30;;;14.50;99.90;;;;;;4995101;28;20218;-88
2021/07/09 02:12:59;;;;;;;13.10;6.70;;;14.60;99.90;;;;;;5022845;28;20241;-87
2021/07/09 02:15:34;;;;;;;11.93;6.43;;;14.70;99.90;;;;;;5014059;28;20646;-87
2021/07/09 02:18:01;;;;;;;13.27;6.57;;;14.70;99.90;;;;;;5026867;28;20205;-89
2021/07/09 02:20:28;;;;;;;15.00;8.37;;;14.70;99.90;;;;;;5013081;28;20755;-88
2021/07/09 02:22:59;;;;;;;16.27;8.30;;;14.80;99.90;;;;;;5022362;28;20310;-87
2021/07/09 02:25:25;;;;;;;16.37;8.53;;;14.80;99.90;;;;;;5013874;28;20630;-90
2021/07/09 02:27:52;;;;;;;14.30;7.83;;;14.90;99.90;;;;;;5020377;28;20249;-89
2021/07/09 02:30:20;;;;;;;16.70;6.83;;;14.90;99.90;;;;;;5020299;28;20205;-87
2021/07/09 02:32:46;;;;;;;12.80;7.20;;;14.90;99.90;;;;;;5008476;28;20186;-87
2021/07/09 02:35:15;;;;;;;14.17;6.77;;;14.80;99.90;;;;;;5021371;28;20230;-87
2021/07/09 02:37:42;;;;;;;17.77;8.57;;;14.70;99.90;;;;;;5020835;28;20313;-88
2021/07/09 02:40:12;;;;;;;16.60;8.43;;;14.70;99.90;;;;;;5012651;28;20203;-87
2021/07/09 02:42:39;;;;;;;16.37;8.87;;;14.70;99.90;;;;;;5015073;28;20221;-87
2021/07/09 02:45:06;;;;;;;16.83;7.73;;;14.70;99.90;;;;;;5013758;28;20191;-87
2021/07/09 02:47:32;;;;;;;15.37;8.63;;;14.70;99.90;;;;;;4997667;28;20217;-87
2021/07/09 02:49:58;;;;;;;20.93;9.33;;;14.70;99.90;;;;;;5006708;28;20587;-87
2021/07/09 02:52:24;;;;;;;12.03;6.37;;;14.70;99.90;;;;;;5005709;28;20213;-86
2021/07/09 02:54:49;;;;;;;7.20;4.53;;;14.60;99.90;;;;;;5019369;28;20629;-87
2021/07/09 02:57:15;;;;;;;6.83;3.97;;;14.50;99.90;;;;;;5012423;28;20194;-86
2021/07/09 02:59:41;;;;;;;5.63;2.67;;;14.30;99.90;;;;;;4997567;28;20600;-88
2021/07/09 03:02:07;;;;;;;8.27;3.97;;;14.10;99.90;;;;;;5021074;28;20214;-88
2021/07/09 03:04:32;;;;;;;7.80;4.10;;;14.10;99.90;;;;;;5022264;28;20206;-87
2021/07/09 03:06:58;;;;;;;8.80;4.83;;;14.10;99.90;;;;;;4996848;28;20220;-86
2021/07/09 03:09:24;;;;;;;13.23;6.13;;;14.10;99.90;;;;;;5004261;28;20178;-87
2021/07/09 03:11:49;;;;;;;13.97;5.90;;;14.10;99.90;;;;;;4996883;28;20194;-87
2021/07/09 03:14:15;;;;;;;13.33;6.00;;;14.20;99.90;;;;;;4995895;28;20309;-87
2021/07/09 03:16:41;;;;;;;8.93;5.03;;;14.30;99.90;;;;;;5019291;28;20233;-87
2021/07/09 03:19:07;;;;;;;4.83;3.87;;;14.20;99.90;;;;;;5008585;28;20227;-86
2021/07/09 03:21:34;;;;;;;2.67;1.90;;;14.20;99.90;;;;;;5007668;28;20222;-86
2021/07/09 03:24:01;;;;;;;3.87;2.03;;;14.20;99.90;;;;;;5017314;28;20674;-86
2021/07/09 03:26:27;;;;;;;5.67;2.50;;;14.20;99.90;;;;;;5009759;28;20250;-86
2021/07/09 03:28:57;;;;;;;4.67;2.60;;;14.20;99.90;;;;;;5000936;28;20207;-87
2021/07/09 03:31:24;;;;;;;4.57;3.03;;;14.10;99.90;;;;;;5009549;28;20215;-87
2021/07/09 03:33:50;;;;;;;3.53;3.10;;;14.10;99.90;;;;;;5008995;28;20294;-87
2021/07/09 03:36:16;;;;;;;3.30;2.00;;;14.00;99.90;;;;;;5009248;28;20639;-87
2021/07/09 03:38:42;;;;;;;1.73;1.17;;;13.90;99.90;;;;;;5003021;28;20213;-86
2021/07/09 03:41:07;;;;;;;2.80;1.70;;;13.90;99.90;;;;;;4992781;28;20215;-91
2021/07/09 03:43:33;;;;;;;3.43;2.00;;;13.80;99.90;;;;;;4993338;28;20302;-89
2021/07/09 03:45:59;;;;;;;4.63;2.63;;;13.80;99.90;;;;;;5019312;28;20206;-86
2021/07/09 03:48:24;;;;;;;5.53;3.20;;;13.80;99.90;;;;;;4984757;28;20230;-86
2021/07/09 03:50:50;;;;;;;4.27;3.13;;;13.80;99.90;;;;;;5016486;28;20662;-87
2021/07/09 03:53:16;;;;;;;5.13;3.00;;;13.90;99.90;;;;;;5009847;28;20252;-89
2021/07/09 03:55:42;;;;;;;4.03;2.27;;;14.00;99.90;;;;;;4992451;28;20225;-86
2021/07/09 03:58:08;;;;;;;3.47;2.60;;;14.00;99.90;;;;;;5017249;28;20300;-87
2021/07/09 04:00:34;;;;;;;6.80;4.27;;;14.00;99.90;;;;;;5008691;28;20281;-86
2021/07/09 04:02:59;;;;;;;3.63;2.50;;;14.10;99.90;;;;;;4993263;28;20194;-86
2021/07/09 04:05:25;;;;;;;3.37;2.17;;;14.20;99.90;;;;;;4992780;28;20229;-88
2021/07/09 04:07:51;;;;;;;28.90;3.93;;;14.30;99.90;;;;;;4991791;28;20238;-86
2021/07/09 04:10:17;;;;;;;5.00;4.03;;;14.40;99.90;;;;;;5000624;28;20215;-87
2021/07/09 04:12:43;;;;;;;5.37;2.93;;;14.50;99.90;;;;;;5007578;28;20223;-87
2021/07/09 04:15:09;;;;;;;6.97;3.87;;;14.50;99.90;;;;;;5001727;28;20188;-87
2021/07/09 04:17:35;;;;;;;11.23;4.40;;;14.50;99.90;;;;;;5016726;28;20224;-87
2021/07/09 04:20:01;;;;;;;4.77;3.07;;;14.50;99.90;;;;;;5007952;28;20218;-87
2021/07/09 04:22:27;;;;;;;5.63;4.10;;;14.50;99.90;;;;;;5007891;28;20219;-87
2021/07/09 04:24:53;;;;;;;5.67;3.07;;;14.50;99.90;;;;;;5001831;28;20225;-86
2021/07/09 04:27:19;;;;;;;8.60;3.23;;;14.50;99.90;;;;;;5008220;28;20660;-86
2021/07/09 04:29:45;;;;;;;9.23;3.90;;;14.40;99.90;;;;;;4992330;28;20188;-87
2021/07/09 04:32:10;;;;;;;6.97;4.23;;;14.50;99.90;;;;;;4992243;28;20214;-86
2021/07/09 04:34:36;;;;;;;6.23;3.37;;;14.60;99.90;;;;;;4998497;28;20272;-86
2021/07/09 04:37:08;;;;;;;3.83;2.80;;;14.80;99.90;;;;;;5008198;28;20255;-86
2021/07/09 04:39:35;;;;;;;5.80;2.90;;;14.90;99.90;;;;;;5009013;28;20222;-87
2021/07/09 04:42:01;;;;;;;3.40;2.40;;;15.00;99.90;;;;;;4992368;28;20183;-87
2021/07/09 04:44:26;;;;;;;5.23;2.57;;;15.00;99.90;;;;;;4996715;28;20230;-86
2021/07/09 04:46:52;;;;;;;6.07;4.37;;;15.20;99.90;;;;;;4998646;28;20214;-88
2021/07/09 04:49:18;;;;;;;7.67;4.67;;;15.30;99.90;;;;;;5007594;28;20277;-86
2021/07/09 04:51:43;;;;;;;12.00;5.07;;;15.50;99.90;;;;;;4992577;28;20242;-87
2021/07/09 04:54:09;;;;;;;10.73;5.57;;;15.60;99.90;;;;;;5008324;28;20191;-86
2021/07/09 04:56:35;;;;;;;8.60;4.83;;;15.70;99.90;;;;;;4991125;28;20221;-86
2021/07/09 04:59:00;;;;;;;10.90;5.27;;;15.80;99.90;;;;;;4991282;28;20219;-86
2021/07/09 05:01:26;;;;;;;11.40;5.23;;;16.00;99.90;;;;;;5006247;28;20222;-90
2021/07/09 05:03:53;;;;;;;11.23;6.37;;;16.20;99.90;;;;;;4991828;28;20241;-89
2021/07/09 05:06:18;;;;;;;13.70;6.90;;;16.40;99.90;;;;;;4991110;28;20270;-86
2021/07/09 05:08:44;;;;;;;11.20;6.33;;;16.40;99.90;;;;;;4991769;28;20274;-87
2021/07/09 05:11:10;;;;;;;15.00;8.07;;;16.50;99.90;;;;;;4991522;28;20964;-88
2021/07/09 05:13:38;;;;;;;11.70;7.53;;;16.60;99.90;;;;;;4990872;28;20230;-86
2021/07/09 05:16:05;;;;;;;15.00;7.33;;;16.90;99.90;;;;;;5007068;28;20215;-87
2021/07/09 05:18:31;;;;;;;17.03;8.40;;;17.30;99.90;;;;;;5010969;28;20239;-87
2021/07/09 05:20:57;;;;;;;19.57;7.70;;;17.60;99.90;;;;;;5011841;28;20592;-87
2021/07/09 05:23:23;;;;;;;15.97;7.27;;;18.10;99.90;;;;;;4999616;28;20217;-87
2021/07/09 05:25:49;;;;;;;17.60;8.13;;;18.60;99.90;;;;;;5010909;28;20213;-87
2021/07/09 05:28:15;;;;;;;17.60;8.43;;;19.20;99.90;;;;;;5018342;28;20237;-87
2021/07/09 05:30:41;;;;;;;17.23;8.23;;;20.90;99.90;;;;;;4995182;28;20213;-86
2021/07/09 05:33:08;;;;;;;10.83;5.63;;;23.50;99.90;;;;;;5010949;28;20631;-87
2021/07/09 05:35:36;;;;;;;14.93;7.37;;;26.60;99.90;;;;;;5011107;28;20317;-86
2021/07/09 05:38:03;;;;;;;10.43;7.60;;;29.40;99.90;;;;;;5019819;28;20264;-86
2021/07/09 05:40:29;;;;;;;11.50;7.33;;;31.40;99.90;;;;;;5009029;28;20210;-87
2021/07/09 05:42:54;;;;;;;11.03;6.37;;;32.90;99.90;;;;;;5002974;28;20223;-88
2021/07/09 05:45:20;;;;;;;11.17;7.20;;;33.60;99.90;;;;;;4994557;28;20182;-86
2021/07/09 05:47:46;;;;;;;10.60;6.93;;;33.50;99.90;;;;;;4998773;28;20233;-85
2021/07/09 05:50:12;;;;;;;10.45;6.07;;;33.50;99.60;;;;;;4998066;28;20239;-86
2021/07/09 05:52:38;;;;;;;11.07;6.78;;;33.30;99.90;;;;;;4998248;28;20225;-86
2021/07/09 05:55:05;;;;;;;10.02;6.70;;;33.80;99.60;;;;;;5013523;28;20260;-86
2021/07/09 05:57:33;;;;;;;8.95;6.18;;;34.00;99.00;;;;;;5015119;28;20561;-86
2021/07/09 05:59:59;;;;;;;10.45;6.72;;;34.20;98.50;;;;;;5006199;28;20186;-85
2021/07/09 06:02:24;;;;;;;8.88;6.82;;;34.20;98.00;;;;;;5037908;28;20829;-85
2021/07/09 06:04:50;;;;;;;10.85;7.18;;;34.10;98.30;;;;;;5008912;28;20218;-86
2021/07/09 06:07:16;;;;;;;9.82;6.55;;;34.00;97.80;;;;;;5016787;28;20594;-87
2021/07/09 06:09:41;;;;;;;12.93;6.90;;;33.90;97.80;;;;;;4997221;28;20218;-86
2021/07/09 06:12:07;;;;;;;10.80;6.95;;;34.00;98.50;;;;;;4998079;28;20711;-86
2021/07/09 06:14:33;;;;;;;10.55;6.65;;;32.90;98.40;;;;;;5005920;28;20222;-86
2021/07/09 06:16:59;;;;;;;12.93;6.88;;;30.80;99.90;;;;;;4997046;28;20207;-88
2021/07/09 06:19:24;;;;;;;9.68;7.45;;;30.00;99.90;;;;;;5019279;28;20235;-86
2021/07/09 06:21:50;;;;;;;10.85;7.78;;;30.20;99.90;;;;;;5009804;28;20303;-87
2021/07/09 06:24:17;;;;;;;10.85;7.47;;;31.20;99.90;;;;;;5019211;28;20205;-88
2021/07/09 06:26:43;;;;;;;10.20;6.35;;;32.20;99.90;;;;;;5009798;28;20191;-87
2021/07/09 06:29:10;;;;;;;8.77;5.60;;;32.50;99.70;;;;;;5008205;28;20222;-87
2021/07/09 06:31:40;;;;;;;9.18;6.40;;;32.50;99.70;;;;;;5019050;28;20207;-85
2021/07/09 06:34:05;;;;;;;12.52;6.93;;;32.30;99.50;;;;;;5008635;28;20221;-86
2021/07/09 06:36:31;;;;;;;9.98;7.05;;;32.20;99.90;;;;;;5009341;28;20575;-89
2021/07/09 06:38:57;;;;;;;14.13;7.55;;;32.20;99.80;;;;;;5010899;28;20608;-87
2021/07/09 06:41:22;;;;;;;9.50;6.80;;;31.40;99.90;;;;;;5017373;28;20210;-89
2021/07/09 06:43:48;;;;;;;10.75;6.88;;;31.00;99.90;;;;;;4993445;28;20207;-87
2021/07/09 06:46:14;;;;;;;9.90;6.32;;;31.40;99.90;;;;;;5009735;28;20243;-88
2021/07/09 06:48:40;;;;;;;11.38;6.57;;;31.90;99.90;;;;;;4993473;28;20213;-86
2021/07/09 06:51:07;;;;;;;9.38;5.63;;;31.40;99.90;;;;;;5009771;28;20266;-88
2021/07/09 06:53:33;;;;;;;8.05;5.30;;;30.30;99.90;;;;;;5009988;28;20309;-87
2021/07/09 06:55:59;;;;;;;8.95;5.88;;;30.30;99.90;;;;;;5010103;28;21513;-88
2021/07/09 06:58:24;;;;;;;7.18;5.15;;;29.90;99.90;;;;;;5008244;28;20270;-87
2021/07/09 07:00:50;;;;;;;8.23;5.00;;;28.70;99.90;;;;;;5003077;28;20207;-88
2021/07/09 07:03:16;;;;;;;10.68;5.88;;;27.50;99.90;;;;;;5010062;28;20195;-89
2021/07/09 07:05:42;;;;;;;9.45;5.65;;;28.20;99.90;;;;;;5011364;28;20193;-87
2021/07/09 07:08:19;;;;;;;8.60;5.40;;;27.70;99.90;;;;;;4992195;28;20225;-89
2021/07/09 07:10:45;;;;;;;10.68;6.05;;;26.50;99.90;;;;;;4962529;28;20772;-87
2021/07/09 07:13:12;;;;;;;12.07;7.68;;;25.60;99.90;;;;;;5019191;28;20197;-87
2021/07/09 07:15:39;;;;;;;9.50;6.68;;;25.00;99.90;;;;;;5017625;28;20278;-88
2021/07/09 07:18:10;;;;;;;10.00;6.30;;;24.60;99.90;;;;;;4990947;28;20317;-87
2021/07/09 07:20:39;;;;;;;11.52;6.57;;;24.10;99.90;;;;;;5023736;28;20241;-87
2021/07/09 07:23:05;;;;;;;10.88;5.82;;;23.60;99.90;;;;;;5004308;28;20214;-87
2021/07/09 07:25:31;;;;;;;12.25;7.22;;;23.40;99.90;;;;;;4996240;28;20245;-87
2021/07/09 07:27:59;;;;;;;12.00;5.93;;;23.20;99.90;;;;;;4996396;28;20274;-87
2021/07/09 07:30:26;;;;;;;10.70;5.95;;;23.00;99.90;;;;;;5012446;28;20206;-87
2021/07/09 07:32:52;;;;;;;9.80;5.77;;;22.40;99.90;;;;;;5020643;28;20225;-88
2021/07/09 07:35:18;;;;;;;8.57;4.63;;;22.20;99.90;;;;;;4996527;28;21192;-86
2021/07/09 07:37:43;;;;;;;6.50;5.27;;;22.00;99.90;;;;;;5021899;28;20257;-86
2021/07/09 07:40:09;;;;;;;11.20;5.90;;;21.80;99.90;;;;;;4996266;28;20207;-86
2021/07/09 07:42:35;;;;;;;11.87;5.93;;;21.60;99.90;;;;;;4995812;28;20433;-89
2021/07/09 07:45:03;;;;;;;9.07;5.33;;;21.60;99.90;;;;;;5012273;28;20217;-87
2021/07/09 07:47:32;;;;;;;9.30;5.80;;;21.30;99.90;;;;;;5022688;28;20213;-89
2021/07/09 07:49:58;;;;;;;11.23;5.60;;;20.90;99.90;;;;;;5012767;28;20300;-89
2021/07/09 07:52:24;;;;;;;10.63;6.50;;;20.70;99.90;;;;;;5019476;28;20191;-87
2021/07/09 07:54:50;;;;;;;11.90;6.33;;;20.70;99.90;;;;;;5004955;28;20266;-87
2021/07/09 07:57:16;;;;;;;10.03;6.53;;;20.70;99.90;;;;;;4995687;28;20222;-88
2021/07/09 07:59:42;;;;;;;11.93;6.37;;;21.00;99.90;;;;;;5012636;28;20226;-88
2021/07/09 08:02:08;;;;;;;12.57;6.60;;;21.40;99.90;;;;;;5005353;28;20309;-88
2021/07/09 08:04:34;;;;;;;12.13;6.97;;;21.90;99.90;;;;;;5011227;28;20208;-88
2021/07/09 08:07:00;;;;;;;10.33;6.17;;;22.00;99.90;;;;;;5012690;28;20198;-88
2021/07/09 08:09:26;;;;;;;6.93;5.00;;;22.70;99.90;;;;;;4996772;28;20225;-88
2021/07/09 08:11:52;;;;;;;7.57;4.40;;;22.90;99.90;;;;;;5012869;28;20309;-89
2021/07/09 08:14:19;;;;;;;6.23;4.10;;;22.80;99.90;;;;;;5017704;28;20337;-88
2021/07/09 08:16:51;;;;;;;8.43;4.27;;;22.90;99.90;;;;;;5003832;28;20587;-89
2021/07/09 08:19:18;;;;;;;8.07;4.27;;;23.10;99.90;;;;;;4997756;28;20226;-88
2021/07/09 08:21:46;;;;;;;10.53;4.87;;;23.30;99.90;;;;;;5021894;28;21158;-89
2021/07/09 08:24:13;;;;;;;6.70;4.50;;;23.10;99.90;;;;;;5012529;28;20609;-88
2021/07/09 08:26:39;;;;;;;9.60;6.27;;;23.00;99.90;;;;;;5004337;28;20341;-87
2021/07/09 08:29:05;;;;;;;8.33;5.60;;;22.50;99.90;;;;;;4992551;28;20259;-88
2021/07/09 08:31:31;;;;;;;13.13;6.07;;;22.20;99.90;;;;;;4976745;28;20186;-88
2021/07/09 08:33:56;;;;;;;9.77;5.23;;;21.40;99.90;;;;;;4977732;28;21069;-88
2021/07/09 08:36:24;;;;;;;6.67;4.67;;;21.30;99.90;;;;;;4989546;28;20257;-87
2021/07/09 08:38:51;;;;;;;10.67;5.43;;;21.30;99.90;;;;;;4990307;28;20210;-88
2021/07/09 08:41:17;;;;;;;11.07;6.20;;;21.10;99.90;;;;;;5021266;28;20210;-88
2021/07/09 08:43:43;;;;;;;10.10;6.50;;;21.20;99.90;;;;;;5010898;28;20221;-87
2021/07/09 08:46:09;;;;;;;7.43;5.13;;;21.30;99.90;;;;;;5018810;28;20183;-88
2021/07/09 08:48:36;;;;;;;8.13;4.87;;;21.60;99.90;;;;;;5011394;28;20222;-88
2021/07/09 08:51:03;;;;;;;9.07;5.13;;;22.20;99.90;;;;;;5021057;28;20210;-88
2021/07/09 08:53:29;;;;;;;5.30;3.90;;;22.70;99.90;;;;;;5015336;28;20249;-88
2021/07/09 08:55:55;;;;;;;5.07;3.73;;;22.60;99.90;;;;;;4991596;28;20243;-88
2021/07/09 08:58:21;;;;;;;5.73;4.53;;;22.40;99.90;;;;;;4976032;28;20206;-88
2021/07/09 09:00:47;;;;;;;4.70;3.70;;;22.60;99.90;;;;;;4975782;28;20868;-88
2021/07/09 09:03:23;;;;;;;7.07;4.87;;;22.70;99.90;;;;;;5002466;28;20217;-89
2021/07/09 09:05:49;;;;;;;7.33;4.50;;;22.70;99.90;;;;;;5007664;28;20230;-88
2021/07/09 09:08:21;;;;;;;4.40;3.70;;;22.70;99.90;;;;;;4990013;28;20249;-88
2021/07/09 09:10:49;;;;;;;7.23;4.50;;;22.80;99.90;;;;;;5018469;28;20229;-87
2021/07/09 09:13:16;;;;;;;6.73;3.80;;;22.70;99.90;;;;;;5020556;28;20179;-87
2021/07/09 09:16:04;;;;;;;4.97;4.27;;;22.70;99.90;;;;;;5038052;28;20268;-86
2021/07/09 09:18:38;;;;;;;5.90;4.30;;;22.60;99.90;;;;;;4991195;28;21493;-86
2021/07/09 09:21:08;;;;;;;7.37;4.80;;;21.80;99.90;;;;;;5019235;28;20834;-87
2021/07/09 09:23:37;;;;;;;7.77;4.67;;;21.50;99.90;;;;;;5018923;28;20808;-87
2021/07/09 09:26:06;;;;;;;8.30;4.70;;;21.20;99.90;;;;;;5020029;28;20364;-88
2021/07/09 09:28:36;;;;;;;5.63;4.30;;;20.90;99.90;;;;;;5002624;28;20280;-86
2021/07/09 09:31:01;;;;;;;5.93;4.40;;;20.80;99.90;;;;;;5028644;28;20190;-86
2021/07/09 09:33:34;;;;;;;6.70;4.80;;;20.90;99.90;;;;;;5011232;28;20222;-86
2021/07/09 09:36:06;;;;;;;8.07;4.30;;;21.40;99.90;;;;;;5017369;28;20222;-86
2021/07/09 09:38:32;;;;;;;7.03;3.77;;;21.60;99.90;;;;;;5037032;28;20226;-86
2021/07/09 09:40:59;;;;;;;7.70;5.10;;;21.60;99.90;;;;;;5020696;28;20203;-85
2021/07/09 09:43:31;;;;;;;6.03;4.70;;;21.70;99.90;;;;;;5011075;28;20187;-86
2021/07/09 09:45:59;;;;;;;7.90;4.97;;;21.70;99.90;;;;;;5021059;28;20174;-85
2021/07/09 09:48:42;;;;;;;6.97;5.40;;;21.80;99.90;;;;;;5018963;28;20686;-86
2021/07/09 09:51:31;;;;;;;7.37;4.27;;;21.80;99.90;;;;;;5017948;28;20226;-86
2021/07/09 09:54:02;;;;;;;8.13;4.50;;;21.80;99.90;;;;;;5018378;28;20220;-85
2021/07/09 09:56:43;;;;;;;5.67;3.87;;;22.10;99.90;;;;;;5018585;28;20258;-85
2021/07/09 09:59:24;;;;;;;5.07;3.90;;;22.70;99.90;;;;;;5017572;28;20217;-85
2021/07/09 10:01:57;;;;;;;5.07;3.63;;;22.80;99.90;;;;;;5015765;28;20284;-85
2021/07/09 10:04:25;;;;;;;6.17;3.83;;;22.70;99.90;;;;;;5037008;28;20210;-86
2021/07/09 10:06:52;;;;;;;5.53;4.80;;;22.80;99.90;;;;;;5017834;28;20282;-86
2021/07/09 10:09:19;;;;;;;6.77;4.73;;;22.80;99.90;;;;;;5020504;28;20230;-87
2021/07/09 10:11:45;;;;;;;7.07;4.97;;;22.80;99.90;;;;;;5010104;28;20216;-85
2021/07/09 10:14:13;;;;;;;9.20;5.00;;;22.70;99.90;;;;;;5003831;28;20367;-86
2021/07/09 10:16:41;;;;;;;5.30;4.13;;;22.70;99.90;;;;;;5003671;28;20214;-87
2021/07/09 10:19:12;;;;;;;7.73;5.20;;;22.70;99.90;;;;;;5036307;28;20260;-87
2021/07/09 10:21:39;;;;;;;7.63;5.23;;;22.30;99.90;;;;;;5035824;28;20214;-87
2021/07/09 10:24:07;;;;;;;7.23;3.97;;;22.00;99.90;;;;;;5018897;28;20210;-86
2021/07/09 10:26:41;;;;;;;5.77;3.97;;;21.80;99.90;;;;;;5020361;28;20199;-86
2021/07/09 10:29:15;;;;;;;5.60;4.70;;;21.60;99.90;;;;;;5016310;28;20285;-86
2021/07/09 10:31:43;;;;;;;4.70;4.20;;;21.50;99.90;;;;;;5019479;28;20237;-87
2021/07/09 10:34:39;;;;;;;6.03;3.70;;;21.40;99.90;;;;;;5014739;28;20236;-85
2021/07/09 10:37:07;;;;;;;4.13;3.73;;;21.20;99.90;;;;;;5000064;28;20226;-86
2021/07/09 10:39:38;;;;;;;6.57;4.23;;;21.30;99.90;;;;;;5020284;28;20223;-86
2021/07/09 10:42:28;;;;;;;6.13;3.63;;;21.30;99.90;;;;;;5040870;28;20202;-87
2021/07/09 10:45:19;;;;;;;8.70;5.07;;;21.80;99.90;;;;;;5023616;28;20320;-87
2021/07/09 10:47:49;;;;;;;7.60;5.03;;;21.70;99.90;;;;;;5023310;28;20687;-88
2021/07/09 10:50:15;;;;;;;6.20;4.87;;;21.80;99.90;;;;;;5020290;28;20762;-88
2021/07/09 10:52:46;;;;;;;8.70;6.00;;;22.10;99.90;;;;;;5020449;28;20316;-86
2021/07/09 10:55:24;;;;;;;6.70;4.97;;;22.10;99.90;;;;;;5021249;28;20194;-87
2021/07/09 10:58:16;;;;;;;8.43;5.07;;;21.50;99.90;;;;;;5020744;28;20205;-86
2021/07/09 11:01:05;;;;;;;8.57;4.23;;;21.50;99.90;;;;;;5021346;28;20589;-87
2021/07/09 11:04:07;;;;;;;8.63;5.60;;;21.50;99.90;;;;;;5019124;28;20220;-87
2021/07/09 11:06:33;;;;;;;7.77;4.67;;;21.10;99.90;;;;;;5019837;28;20351;-88
2021/07/09 11:09:02;;;;;;;8.57;5.73;;;21.40;99.90;;;;;;5021627;28;20300;-87
2021/07/09 11:11:43;;;;;;;4.70;4.00;;;21.90;99.90;;;;;;5019963;28;20237;-88
2021/07/09 11:14:20;;;;;;;5.23;4.23;;;22.30;99.90;;;;;;5021222;28;20226;-86
2021/07/09 11:17:00;;;;;;;7.13;4.83;;;22.80;99.90;;;;;;5019949;28;20229;-89
2021/07/09 11:19:31;;;;;;;6.87;4.77;;;22.90;99.90;;;;;;5012992;28;20272;-87
2021/07/09 11:22:01;;;;;;;5.30;4.50;;;22.30;99.90;;;;;;5021677;28;20218;-87
2021/07/09 11:24:31;;;;;;;8.27;5.03;;;22.70;99.90;;;;;;5021517;28;20280;-87
2021/07/09 11:27:00;;;;;;;9.87;5.57;;;22.50;99.90;;;;;;5018680;28;20264;-86
2021/07/09 11:29:31;;;;;;;6.33;4.63;;;22.40;99.90;;;;;;5022091;28;20592;-86
2021/07/09 11:32:02;;;;;;;5.77;5.17;;;22.40;99.90;;;;;;5020658;28;20222;-86
2021/07/09 11:34:31;;;;;;;6.37;4.57;;;22.30;99.90;;;;;;5023020;28;20190;-88
2021/07/09 11:37:06;;;;;;;9.43;6.22;;;22.60;99.90;;;;;;5039931;28;20218;-87
2021/07/09 11:39:44;;;;;;;5.13;3.70;;;23.20;99.90;;;;;;5038890;28;20241;-87
2021/07/09 11:42:12;;;;;;;5.73;4.13;;;23.60;99.90;;;;;;5019834;28;20210;-85
2021/07/09 11:44:48;;;;;;;6.15;4.82;;;24.30;99.90;;;;;;5028191;28;20239;-86
2021/07/09 11:47:17;;;;;;;6.38;4.00;;;24.20;99.90;;;;;;5020940;28;20210;-85
2021/07/09 11:49:48;;;;;;;6.55;3.67;;;23.90;99.90;;;;;;5020828;28;20214;-87
2021/07/09 11:52:20;;;;;;;5.75;4.28;;;23.10;99.90;;;;;;5012553;28;20190;-85
2021/07/09 11:54:46;;;;;;;7.18;4.55;;;22.90;99.90;;;;;;5019727;28;20666;-85
2021/07/09 11:57:14;;;;;;;7.25;4.88;;;22.80;99.90;;;;;;5002941;28;20210;-85
2021/07/09 11:59:43;;;;;;;8.43;5.63;;;22.40;99.90;;;;;;5009351;28;20604;-86
2021/07/09 12:02:29;;;;;;;10.25;5.07;;;22.40;99.90;;;;;;4985794;28;20218;-86
2021/07/09 12:04:59;;;;;;;8.77;4.13;;;21.90;99.90;;;;;;5004978;28;20243;-86
2021/07/09 12:07:31;;;;;;;7.30;4.93;;;21.90;99.90;;;;;;5038176;28;20547;-86
2021/07/09 12:10:07;;;;;;;4.90;4.37;;;22.40;99.90;;;;;;5020837;28;20248;-86
2021/07/09 12:12:46;;;;;;;5.53;3.83;;;22.70;99.90;;;;;;5020617;28;20698;-85
2021/07/09 12:15:26;;;;;;;6.57;3.65;;;23.00;99.90;;;;;;5019346;28;20224;-87
2021/07/09 12:18:00;;;;;;;4.30;3.90;;;23.60;99.90;;;;;;5018270;28;20220;-85
2021/07/09 12:20:37;;;;;;;5.55;4.60;;;23.70;99.90;;;;;;5018515;28;20357;-85
2021/07/09 12:23:08;;;;;;;8.13;5.45;;;23.60;99.90;;;;;;5016763;28;20707;-85
2021/07/09 12:25:38;;;;;;;5.03;4.40;;;23.20;99.90;;;;;;5018091;28;20269;-86
2021/07/09 12:28:05;;;;;;;8.32;5.28;;;23.60;99.90;;;;;;5015823;28;20197;-87
2021/07/09 12:30:46;;;;;;;5.40;3.73;;;23.70;99.90;;;;;;5008905;28;20280;-85
2021/07/09 12:33:17;;;;;;;4.97;4.40;;;23.40;99.90;;;;;;5015080;28;20219;-88
2021/07/09 12:35:43;;;;;;;4.80;3.92;;;23.40;99.90;;;;;;5015785;28;20242;-85
2021/07/09 12:38:10;;;;;;;6.03;4.35;;;23.50;99.90;;;;;;5007761;28;20223;-85
2021/07/09 12:40:41;;;;;;;6.00;4.68;;;23.70;99.90;;;;;;5014897;28;20265;-84
2021/07/09 12:43:23;;;;;;;3.70;3.15;;;23.80;99.90;;;;;;5016508;28;20194;-85
2021/07/09 12:45:55;;;;;;;4.90;3.97;;;23.90;99.90;;;;;;5017216;28;20211;-84
2021/07/09 12:48:54;;;;;;;6.18;3.55;;;24.10;99.90;;;;;;5015254;28;20211;-85